aviador You're here:

KPNS Decoded Metar

PENSACOLA in FL, USA
Report Time2017-06-29 07:00:00
UTC Time2017-06-29 07:09:09
Flight Rules mvfr MVFR
Wind080° at 04 kt
W.Decomp.*RWY 08: 4.0 kt HW 0.1 kt RCW
RWY 17: 0.1 kt HW 4 kt LCW
W.Rank080° ranks 30
Current wind is below 080° avg. (5.1)
Visibility9999 m
Phenomena:N/A
Clouds:Few 016 Hf
Broken 021 Hf
Broken 026 Hf
Expected CloudBase > 800 ft AGL from Temp-Dew spread
Ceiling2,100 ft
Temp26°C (ISA +11)
Dew Point24°C (89% RH)
QNH1017 hPa
Density Alt1,683 ft
Elevation125 ft
Report Wrong Elevation
Raw Report
KPNS 290700Z AUTO 08004KT 10SM FEW016 BKN021 BKN026 26/24 A3002
RMK AO2 T02560239=

Extra information for KPNS:More info

Metar Taf Metar & Taf Last 4 Metars F.Rules Stats Wind Profile Meteogram Temp Stats Airport Information Weather charts Add Link Nearby VenuesMetar ALERT Operation Metar Decoded Social comments

AIRNAV info for KPNS